sensor_id;sensor_type;location;lat;lon;timestamp;pressure;altitude;pressure_sealevel;temperature;humidity
69528;BME280;57136;51.986;4.468;2023-02-03T00:01:53;102618.69;;;8.80;100.00
69528;BME280;57136;51.986;4.468;2023-02-03T00:04:21;102621.22;;;8.79;100.00
69528;BME280;57136;51.986;4.468;2023-02-03T00:06:48;102633.94;;;8.94;100.00
69528;BME280;57136;51.986;4.468;2023-02-03T00:09:15;102632.94;;;8.90;100.00
69528;BME280;57136;51.986;4.468;2023-02-03T00:11:40;102624.56;;;8.97;100.00
69528;BME280;57136;51.986;4.468;2023-02-03T00:14:07;102630.50;;;8.95;100.00
69528;BME280;57136;51.986;4.468;2023-02-03T00:16:33;102636.63;;;8.95;100.00
69528;BME280;57136;51.986;4.468;2023-02-03T00:18:59;102622.88;;;8.77;100.00
69528;BME280;57136;51.986;4.468;2023-02-03T00:21:24;102634.22;;;8.79;100.00
69528;BME280;57136;51.986;4.468;2023-02-03T00:23:49;102618.69;;;8.80;100.00
69528;BME280;57136;51.986;4.468;2023-02-03T00:26:15;102633.59;;;8.63;100.00
69528;BME280;57136;51.986;4.468;2023-02-03T00:28:41;102627.56;;;8.86;100.00
69528;BME280;57136;51.986;4.468;2023-02-03T00:31:22;102635.69;;;8.72;100.00
69528;BME280;57136;51.986;4.468;2023-02-03T00:33:57;102634.81;;;8.72;100.00
69528;BME280;57136;51.986;4.468;2023-02-03T00:36:22;102636.13;;;8.83;100.00
69528;BME280;57136;51.986;4.468;2023-02-03T00:38:48;102629.00;;;8.79;100.00
69528;BME280;57136;51.986;4.468;2023-02-03T00:41:14;102656.78;;;8.80;100.00
69528;BME280;57136;51.986;4.468;2023-02-03T00:43:40;102652.53;;;8.82;100.00
69528;BME280;57136;51.986;4.468;2023-02-03T00:46:05;102650.66;;;8.78;100.00
69528;BME280;57136;51.986;4.468;2023-02-03T00:48:31;102652.34;;;8.98;100.00
69528;BME280;57136;51.986;4.468;2023-02-03T00:50:56;102645.63;;;9.04;100.00
69528;BME280;57136;51.986;4.468;2023-02-03T00:53:25;102643.47;;;8.93;100.00
69528;BME280;57136;51.986;4.468;2023-02-03T00:55:51;102629.91;;;9.01;100.00
69528;BME280;57136;51.986;4.468;2023-02-03T00:58:16;102643.31;;;9.11;100.00
69528;BME280;57136;51.986;4.468;2023-02-03T01:00:41;102645.25;;;8.94;100.00
69528;BME280;57136;51.986;4.468;2023-02-03T01:03:07;102640.34;;;9.02;100.00
69528;BME280;57136;51.986;4.468;2023-02-03T01:05:32;102632.94;;;8.90;100.00
69528;BME280;57136;51.986;4.468;2023-02-03T01:07:59;102642.00;;;9.00;100.00
69528;BME280;57136;51.986;4.468;2023-02-03T01:10:25;102644.34;;;8.94;100.00
69528;BME280;57136;51.986;4.468;2023-02-03T01:12:51;102646.38;;;9.01;100.00
69528;BME280;57136;51.986;4.468;2023-02-03T01:15:16;102643.97;;;9.06;100.00
69528;BME280;57136;51.986;4.468;2023-02-03T01:17:41;102635.97;;;9.01;100.00
69528;BME280;57136;51.986;4.468;2023-02-03T01:20:08;102631.06;;;9.09;100.00
69528;BME280;57136;51.986;4.468;2023-02-03T01:22:37;102631.59;;;9.23;100.00
69528;BME280;57136;51.986;4.468;2023-02-03T01:25:02;102609.13;;;9.02;100.00
69528;BME280;57136;51.986;4.468;2023-02-03T01:27:31;102631.06;;;9.09;100.00
69528;BME280;57136;51.986;4.468;2023-02-03T01:29:57;102626.94;;;9.14;100.00
69528;BME280;57136;51.986;4.468;2023-02-03T01:32:22;102601.84;;;9.14;100.00
69528;BME280;57136;51.986;4.468;2023-02-03T01:34:47;102583.66;;;9.16;100.00
69528;BME280;57136;51.986;4.468;2023-02-03T01:37:13;102582.91;;;9.19;100.00
69528;BME280;57136;51.986;4.468;2023-02-03T01:39:41;102603.06;;;9.24;100.00
69528;BME280;57136;51.986;4.468;2023-02-03T01:42:07;102605.59;;;9.23;100.00
69528;BME280;57136;51.986;4.468;2023-02-03T01:44:47;102619.03;;;9.34;100.00
69528;BME280;57136;51.986;4.468;2023-02-03T01:47:28;102607.78;;;9.35;100.00
69528;BME280;57136;51.986;4.468;2023-02-03T01:52:43;102600.75;;;9.32;100.00
69528;BME280;57136;51.986;4.468;2023-02-03T01:55:13;102606.19;;;9.38;100.00
69528;BME280;57136;51.986;4.468;2023-02-03T01:58:01;102603.47;;;9.35;100.00
69528;BME280;57136;51.986;4.468;2023-02-03T02:00:28;102613.34;;;9.21;100.00
69528;BME280;57136;51.986;4.468;2023-02-03T02:02:56;102590.75;;;9.20;100.00
69528;BME280;57136;51.986;4.468;2023-02-03T02:05:33;102579.41;;;9.18;100.00
69528;BME280;57136;51.986;4.468;2023-02-03T02:08:00;102586.34;;;9.18;100.00
69528;BME280;57136;51.986;4.468;2023-02-03T02:10:28;102595.44;;;9.06;100.00
69528;BME280;57136;51.986;4.468;2023-02-03T02:12:57;102605.31;;;9.15;100.00
69528;BME280;57136;51.986;4.468;2023-02-03T02:15:43;102580.34;;;9.20;100.00
69528;BME280;57136;51.986;4.468;2023-02-03T02:32:16;102589.16;;;9.24;100.00
69528;BME280;57136;51.986;4.468;2023-02-03T02:40:20;102590.66;;;9.17;100.00
69528;BME280;57136;51.986;4.468;2023-02-03T02:43:54;102595.25;;;9.24;100.00
69528;BME280;57136;51.986;4.468;2023-02-03T02:46:01;102589.81;;;9.18;100.00
69528;BME280;57136;51.986;4.468;2023-02-03T02:48:51;102584.28;;;9.32;100.00
69528;BME280;57136;51.986;4.468;2023-02-03T02:51:20;102571.50;;;9.15;100.00
69528;BME280;57136;51.986;4.468;2023-02-03T02:53:59;102580.47;;;9.23;100.00
69528;BME280;57136;51.986;4.468;2023-02-03T02:56:27;102589.56;;;9.35;100.00
69528;BME280;57136;51.986;4.468;2023-02-03T02:58:55;102589.34;;;9.28;100.00
69528;BME280;57136;51.986;4.468;2023-02-03T03:01:21;102590.09;;;9.26;100.00
69528;BME280;57136;51.986;4.468;2023-02-03T03:03:47;102588.53;;;9.29;100.00
69528;BME280;57136;51.986;4.468;2023-02-03T03:08:54;102577.28;;;9.31;100.00
69528;BME280;57136;51.986;4.468;2023-02-03T03:11:23;102564.22;;;9.29;100.00
69528;BME280;57136;51.986;4.468;2023-02-03T03:13:52;102566.81;;;9.29;100.00
69528;BME280;57136;51.986;4.468;2023-02-03T03:16:26;102575.63;;;9.33;100.00
69528;BME280;57136;51.986;4.468;2023-02-03T03:19:09;102562.78;;;9.37;100.00
69528;BME280;57136;51.986;4.468;2023-02-03T03:21:42;102546.78;;;9.26;100.00
69528;BME280;57136;51.986;4.468;2023-02-03T03:24:11;102543.34;;;9.27;100.00
69528;BME280;57136;51.986;4.468;2023-02-03T03:26:49;102564.03;;;9.24;100.00
69528;BME280;57136;51.986;4.468;2023-02-03T03:29:32;102576.97;;;9.23;100.00
69528;BME280;57136;51.986;4.468;2023-02-03T03:32:01;102561.16;;;9.17;100.00
69528;BME280;57136;51.986;4.468;2023-02-03T03:34:27;102572.97;;;9.08;100.00
69528;BME280;57136;51.986;4.468;2023-02-03T03:37:01;102564.47;;;9.12;100.00
69528;BME280;57136;51.986;4.468;2023-02-03T03:39:28;102561.88;;;9.12;100.00
69528;BME280;57136;51.986;4.468;2023-02-03T03:44:32;102572.84;;;9.05;100.00
69528;BME280;57136;51.986;4.468;2023-02-03T03:47:09;102566.66;;;9.02;100.00
69528;BME280;57136;51.986;4.468;2023-02-03T03:49:37;102563.41;;;9.07;100.00
69528;BME280;57136;51.986;4.468;2023-02-03T03:52:07;102565.75;;;9.01;100.00
69528;BME280;57136;51.986;4.468;2023-02-03T03:54:36;102565.09;;;9.07;100.00
69528;BME280;57136;51.986;4.468;2023-02-03T03:57:15;102581.31;;;8.99;100.00
69528;BME280;57136;51.986;4.468;2023-02-03T03:59:46;102580.81;;;9.10;100.00
69528;BME280;57136;51.986;4.468;2023-02-03T04:02:13;102578.09;;;9.07;100.00
69528;BME280;57136;51.986;4.468;2023-02-03T04:04:40;102580.59;;;9.04;100.00
69528;BME280;57136;51.986;4.468;2023-02-03T04:07:06;102569.38;;;9.05;100.00
69528;BME280;57136;51.986;4.468;2023-02-03T04:09:32;102568.66;;;9.09;100.00
69528;BME280;57136;51.986;4.468;2023-02-03T04:12:00;102571.16;;;9.06;100.00
69528;BME280;57136;51.986;4.468;2023-02-03T04:14:27;102580.94;;;9.13;100.00
69528;BME280;57136;51.986;4.468;2023-02-03T04:16:54;102591.84;;;9.25;100.00
69528;BME280;57136;51.986;4.468;2023-02-03T04:19:19;102591.44;;;9.14;100.00
69528;BME280;57136;51.986;4.468;2023-02-03T04:21:45;102589.00;;;9.19;100.00
69528;BME280;57136;51.986;4.468;2023-02-03T04:24:10;102591.84;;;9.25;100.00
69528;BME280;57136;51.986;4.468;2023-02-03T04:26:36;102595.59;;;9.11;100.00
69528;BME280;57136;51.986;4.468;2023-02-03T04:29:02;102591.84;;;9.25;100.00
69528;BME280;57136;51.986;4.468;2023-02-03T04:31:27;102588.41;;;9.26;100.00
69528;BME280;57136;51.986;4.468;2023-02-03T04:33:52;102587.22;;;9.18;100.00
69528;BME280;57136;51.986;4.468;2023-02-03T04:36:18;102578.63;;;9.21;100.00
69528;BME280;57136;51.986;4.468;2023-02-03T04:38:43;102574.09;;;9.15;100.00
69528;BME280;57136;51.986;4.468;2023-02-03T04:41:08;102572.41;;;9.16;100.00
69528;BME280;57136;51.986;4.468;2023-02-03T04:43:36;102579.88;;;9.08;100.00
69528;BME280;57136;51.986;4.468;2023-02-03T04:46:01;102571.16;;;9.06;100.00
69528;BME280;57136;51.986;4.468;2023-02-03T04:48:27;102584.16;;;9.06;100.00
69528;BME280;57136;51.986;4.468;2023-02-03T04:50:52;102595.03;;;9.18;100.00
69528;BME280;57136;51.986;4.468;2023-02-03T04:53:18;102593.38;;;8.97;100.00
69528;BME280;57136;51.986;4.468;2023-02-03T04:55:46;102596.22;;;9.04;100.00
69528;BME280;57136;51.986;4.468;2023-02-03T04:58:14;102595.38;;;9.05;100.00
69528;BME280;57136;51.986;4.468;2023-02-03T05:00:39;102597.38;;;9.12;100.00
69528;BME280;57136;51.986;4.468;2023-02-03T05:03:05;102608.72;;;9.14;100.00
69528;BME280;57136;51.986;4.468;2023-02-03T05:05:30;102604.47;;;9.16;100.00
69528;BME280;57136;51.986;4.468;2023-02-03T05:07:55;102608.28;;;9.02;100.00
69528;BME280;57136;51.986;4.468;2023-02-03T05:10:21;102599.81;;;9.07;100.00
69528;BME280;57136;51.986;4.468;2023-02-03T05:12:46;102588.63;;;9.10;100.00
69528;BME280;57136;51.986;4.468;2023-02-03T05:15:11;102591.22;;;9.10;100.00
69528;BME280;57136;51.986;4.468;2023-02-03T05:17:37;102600.69;;;9.08;100.00
69528;BME280;57136;51.986;4.468;2023-02-03T05:20:04;102591.84;;;9.03;100.00
69528;BME280;57136;51.986;4.468;2023-02-03T05:22:30;102596.50;;;9.11;100.00
69528;BME280;57136;51.986;4.468;2023-02-03T05:24:55;102595.19;;;9.00;100.00
69528;BME280;57136;51.986;4.468;2023-02-03T05:27:20;102603.00;;;9.00;100.00
69528;BME280;57136;51.986;4.468;2023-02-03T05:29:45;102598.81;;;9.04;100.00
69528;BME280;57136;51.986;4.468;2023-02-03T05:32:11;102604.22;;;9.10;100.00
69528;BME280;57136;51.986;4.468;2023-02-03T05:34:36;102598.41;;;9.16;100.00
69528;BME280;57136;51.986;4.468;2023-02-03T05:37:01;102595.72;;;9.14;100.00
69528;BME280;57136;51.986;4.468;2023-02-03T05:39:28;102595.72;;;9.14;100.00
69528;BME280;57136;51.986;4.468;2023-02-03T05:41:53;102612.69;;;9.27;100.00
69528;BME280;57136;51.986;4.468;2023-02-03T05:44:24;102601.06;;;9.17;100.00
69528;BME280;57136;51.986;4.468;2023-02-03T05:46:51;102590.94;;;9.25;100.00
69528;BME280;57136;51.986;4.468;2023-02-03T05:49:18;102608.16;;;9.21;100.00
69528;BME280;57136;51.986;4.468;2023-02-03T05:51:47;102588.53;;;9.29;100.00
69528;BME280;57136;51.986;4.468;2023-02-03T05:54:13;102589.94;;;9.21;100.00
69528;BME280;57136;51.986;4.468;2023-02-03T05:56:39;102591.72;;;9.22;100.00
69528;BME280;57136;51.986;4.468;2023-02-03T05:59:05;102588.22;;;9.22;100.00
69528;BME280;57136;51.986;4.468;2023-02-03T06:01:31;102583.13;;;9.25;100.00
69528;BME280;57136;51.986;4.468;2023-02-03T06:03:56;102586.69;;;9.27;100.00
69528;BME280;57136;51.986;4.468;2023-02-03T06:06:22;102596.13;;;9.25;100.00
69528;BME280;57136;51.986;4.468;2023-02-03T06:08:47;102608.03;;;9.18;100.00
69528;BME280;57136;51.986;4.468;2023-02-03T06:11:15;102605.97;;;9.32;100.00
69528;BME280;57136;51.986;4.468;2023-02-03T06:13:40;102576.03;;;9.21;100.00
69528;BME280;57136;51.986;4.468;2023-02-03T06:16:06;102590.41;;;9.11;100.00
69528;BME280;57136;51.986;4.468;2023-02-03T06:18:31;102579.41;;;9.18;100.00
69528;BME280;57136;51.986;4.468;2023-02-03T06:20:56;102590.47;;;9.12;100.00
69528;BME280;57136;51.986;4.468;2023-02-03T06:23:22;102587.91;;;9.14;100.00
69528;BME280;57136;51.986;4.468;2023-02-03T06:25:49;102581.03;;;9.14;100.00
69528;BME280;57136;51.986;4.468;2023-02-03T06:28:14;102578.88;;;9.04;100.00
69528;BME280;57136;51.986;4.468;2023-02-03T06:30:40;102581.56;;;9.06;100.00
69528;BME280;57136;51.986;4.468;2023-02-03T06:33:06;102583.78;;;8.96;100.00
69528;BME280;57136;51.986;4.468;2023-02-03T06:35:31;102600.50;;;9.03;100.00
69528;BME280;57136;51.986;4.468;2023-02-03T06:37:57;102608.31;;;9.03;100.00
69528;BME280;57136;51.986;4.468;2023-02-03T06:40:22;102602.81;;;8.95;100.00
69528;BME280;57136;51.986;4.468;2023-02-03T06:42:47;102618.59;;;9.00;100.00
69528;BME280;57136;51.986;4.468;2023-02-03T06:45:13;102618.06;;;9.09;100.00
69528;BME280;57136;51.986;4.468;2023-02-03T06:47:43;102606.66;;;9.05;100.00
69528;BME280;57136;51.986;4.468;2023-02-03T06:50:11;102618.88;;;9.08;100.00
69528;BME280;57136;51.986;4.468;2023-02-03T06:52:37;102617.78;;;9.24;100.00
69528;BME280;57136;51.986;4.468;2023-02-03T06:55:03;102629.22;;;9.27;100.00
69528;BME280;57136;51.986;4.468;2023-02-03T06:57:28;102628.06;;;9.21;100.00
69528;BME280;57136;51.986;4.468;2023-02-03T06:59:54;102645.81;;;9.31;100.00
69528;BME280;57136;51.986;4.468;2023-02-03T07:02:19;102651.66;;;9.25;100.00
69528;BME280;57136;51.986;4.468;2023-02-03T07:04:44;102658.00;;;9.32;100.00
69528;BME280;57136;51.986;4.468;2023-02-03T07:07:11;102657.22;;;9.35;100.00
69528;BME280;57136;51.986;4.468;2023-02-03T07:09:37;102652.50;;;9.24;100.00
69528;BME280;57136;51.986;4.468;2023-02-03T07:12:03;102638.59;;;9.24;100.00
69528;BME280;57136;51.986;4.468;2023-02-03T07:14:28;102654.84;;;9.41;100.00
69528;BME280;57136;51.986;4.468;2023-02-03T07:16:55;102664.56;;;9.45;100.00
69528;BME280;57136;51.986;4.468;2023-02-03T07:19:20;102654.56;;;9.33;100.00
69528;BME280;57136;51.986;4.468;2023-02-03T07:21:46;102652.91;;;9.35;100.00
69528;BME280;57136;51.986;4.468;2023-02-03T07:24:11;102660.13;;;9.42;100.00
69528;BME280;57136;51.986;4.468;2023-02-03T07:26:36;102680.47;;;9.53;100.00
69528;BME280;57136;51.986;4.468;2023-02-03T07:29:03;102666.69;;;9.55;100.00
69528;BME280;57136;51.986;4.468;2023-02-03T07:31:28;102665.00;;;9.35;100.00
69528;BME280;57136;51.986;4.468;2023-02-03T07:33:53;102670.13;;;9.54;100.00
69528;BME280;57136;51.986;4.468;2023-02-03T07:36:19;102665.47;;;9.46;100.00
69528;BME280;57136;51.986;4.468;2023-02-03T07:38:44;102663.19;;;9.55;100.00
69528;BME280;57136;51.986;4.468;2023-02-03T07:41:09;102649.84;;;9.46;100.00
69528;BME280;57136;51.986;4.468;2023-02-03T07:43:35;102676.84;;;9.72;100.00
69528;BME280;57136;51.986;4.468;2023-02-03T07:46:00;102657.28;;;9.59;100.00
69528;BME280;57136;51.986;4.468;2023-02-03T07:48:26;102648.47;;;9.55;100.00
69528;BME280;57136;51.986;4.468;2023-02-03T07:50:51;102672.66;;;9.53;100.00
69528;BME280;57136;51.986;4.468;2023-02-03T07:53:17;102670.84;;;9.50;100.00
69528;BME280;57136;51.986;4.468;2023-02-03T07:55:43;102678.81;;;9.55;100.00
69528;BME280;57136;51.986;4.468;2023-02-03T07:58:08;102677.34;;;9.62;100.00
69528;BME280;57136;51.986;4.468;2023-02-03T08:00:34;102676.31;;;9.58;100.00
69528;BME280;57136;51.986;4.468;2023-02-03T08:03:00;102681.06;;;9.68;100.00
69528;BME280;57136;51.986;4.468;2023-02-03T08:05:26;102669.63;;;9.87;100.00
69528;BME280;57136;51.986;4.468;2023-02-03T08:07:51;102687.09;;;9.67;100.00
69528;BME280;57136;51.986;4.468;2023-02-03T08:10:16;102698.03;;;9.81;100.00
69528;BME280;57136;51.986;4.468;2023-02-03T08:12:42;102694.00;;;9.67;100.00
69528;BME280;57136;51.986;4.468;2023-02-03T08:15:09;102697.84;;;9.77;100.00
69528;BME280;57136;51.986;4.468;2023-02-03T08:17:35;102690.09;;;9.78;100.00
69528;BME280;57136;51.986;4.468;2023-02-03T08:20:01;102680.63;;;9.80;100.00
69528;BME280;57136;51.986;4.468;2023-02-03T08:22:26;102694.66;;;9.84;100.00
69528;BME280;57136;51.986;4.468;2023-02-03T08:24:52;102700.53;;;9.78;100.00
69528;BME280;57136;51.986;4.468;2023-02-03T08:27:20;102716.94;;;9.76;100.00
69528;BME280;57136;51.986;4.468;2023-02-03T08:29:45;102703.66;;;9.69;100.00
69528;BME280;57136;51.986;4.468;2023-02-03T08:32:13;102697.75;;;9.73;100.00
69528;BME280;57136;51.986;4.468;2023-02-03T08:34:39;102708.16;;;9.73;100.00
69528;BME280;57136;51.986;4.468;2023-02-03T08:37:05;102713.66;;;9.81;100.00
69528;BME280;57136;51.986;4.468;2023-02-03T08:39:31;102703.34;;;9.84;100.00
69528;BME280;57136;51.986;4.468;2023-02-03T08:41:57;102703.78;;;9.72;100.00
69528;BME280;57136;51.986;4.468;2023-02-03T08:44:23;102710.69;;;9.72;100.00
69528;BME280;57136;51.986;4.468;2023-02-03T08:46:50;102719.25;;;9.92;100.00
69528;BME280;57136;51.986;4.468;2023-02-03T08:49:16;102718.72;;;10.01;100.00
69528;BME280;57136;51.986;4.468;2023-02-03T08:51:41;102713.53;;;9.78;100.00
69528;BME280;57136;51.986;4.468;2023-02-03T08:54:06;102717.78;;;9.76;100.00
69528;BME280;57136;51.986;4.468;2023-02-03T08:56:32;102727.22;;;9.72;100.00
69528;BME280;57136;51.986;4.468;2023-02-03T08:59:00;102727.88;;;9.89;100.00
69528;BME280;57136;51.986;4.468;2023-02-03T09:01:25;102721.41;;;10.02;100.00
69528;BME280;57136;51.986;4.468;2023-02-03T09:03:51;102717.53;;;9.93;100.00
69528;BME280;57136;51.986;4.468;2023-02-03T09:06:16;102732.22;;;10.13;100.00
69528;BME280;57136;51.986;4.468;2023-02-03T09:08:43;102732.97;;;10.11;100.00
69528;BME280;57136;51.986;4.468;2023-02-03T09:11:11;102741.22;;;9.99;100.00
69528;BME280;57136;51.986;4.468;2023-02-03T09:13:37;102746.41;;;9.99;100.00
69528;BME280;57136;51.986;4.468;2023-02-03T09:16:05;102740.34;;;9.98;100.00
69528;BME280;57136;51.986;4.468;2023-02-03T09:18:31;102749.72;;;9.95;100.00
69528;BME280;57136;51.986;4.468;2023-02-03T09:21:15;102757.22;;;9.85;100.00
69528;BME280;57136;51.986;4.468;2023-02-03T09:23:41;102760.94;;;9.92;100.00
69528;BME280;57136;51.986;4.468;2023-02-03T09:26:09;102764.84;;;9.81;100.00
69528;BME280;57136;51.986;4.468;2023-02-03T09:28:35;102758.31;;;9.92;100.00
69528;BME280;57136;51.986;4.468;2023-02-03T09:31:09;102774.84;;;9.93;100.00
69528;BME280;57136;51.986;4.468;2023-02-03T09:33:35;102772.75;;;10.07;100.00
69528;BME280;57136;51.986;4.468;2023-02-03T09:36:01;102773.06;;;10.14;100.00
69528;BME280;57136;51.986;4.468;2023-02-03T09:38:26;102771.06;;;10.07;100.00
69528;BME280;57136;51.986;4.468;2023-02-03T09:40:54;102776.13;;;10.04;100.00
69528;BME280;57136;51.986;4.468;2023-02-03T09:43:40;102794.47;;;10.30;100.00
69528;BME280;57136;51.986;4.468;2023-02-03T09:46:15;102775.94;;;10.22;100.00
69528;BME280;57136;51.986;4.468;2023-02-03T09:48:57;102774.56;;;10.32;100.00
69528;BME280;57136;51.986;4.468;2023-02-03T09:51:28;102773.50;;;10.27;100.00
69528;BME280;57136;51.986;4.468;2023-02-03T09:54:04;102792.50;;;10.47;100.00
69528;BME280;57136;51.986;4.468;2023-02-03T09:56:35;102780.19;;;10.43;100.00
69528;BME280;57136;51.986;4.468;2023-02-03T09:59:02;102793.13;;;10.40;100.00
69528;BME280;57136;51.986;4.468;2023-02-03T10:01:41;102816.66;;;10.41;100.00
69528;BME280;57136;51.986;4.468;2023-02-03T10:06:55;102803.06;;;10.50;100.00
69528;BME280;57136;51.986;4.468;2023-02-03T10:09:48;102813.25;;;10.68;100.00
69528;BME280;57136;51.986;4.468;2023-02-03T10:12:30;102805.28;;;10.89;100.00
69528;BME280;57136;51.986;4.468;2023-02-03T10:17:47;102820.19;;;11.18;100.00
69528;BME280;57136;51.986;4.468;2023-02-03T10:20:20;102820.75;;;11.09;100.00
69528;BME280;57136;51.986;4.468;2023-02-03T10:22:51;102818.78;;;11.02;100.00
69528;BME280;57136;51.986;4.468;2023-02-03T10:25:23;102824.09;;;11.05;100.00
69528;BME280;57136;51.986;4.468;2023-02-03T10:27:52;102818.81;;;11.03;100.00
69528;BME280;57136;51.986;4.468;2023-02-03T10:32:48;102817.69;;;11.21;100.00
69528;BME280;57136;51.986;4.468;2023-02-03T10:35:14;102829.31;;;11.31;99.98
69528;BME280;57136;51.986;4.468;2023-02-03T10:37:44;102824.25;;;11.09;100.00
69528;BME280;57136;51.986;4.468;2023-02-03T10:40:13;102827.22;;;11.20;99.96
69528;BME280;57136;51.986;4.468;2023-02-03T10:42:41;102823.38;;;11.09;100.00
69528;BME280;57136;51.986;4.468;2023-02-03T10:45:36;102841.91;;;11.17;99.89
69528;BME280;57136;51.986;4.468;2023-02-03T10:48:03;102859.69;;;11.29;100.00
69528;BME280;57136;51.986;4.468;2023-02-03T10:50:29;102867.25;;;11.47;98.56
69528;BME280;57136;51.986;4.468;2023-02-03T10:55:44;102862.53;;;11.35;99.06
69528;BME280;57136;51.986;4.468;2023-02-03T10:58:16;102851.91;;;11.04;100.00
69528;BME280;57136;51.986;4.468;2023-02-03T11:00:43;102841.03;;;10.92;100.00
69528;BME280;57136;51.986;4.468;2023-02-03T11:05:37;102856.75;;;11.19;100.00
69528;BME280;57136;51.986;4.468;2023-02-03T11:08:03;102870.28;;;11.33;99.74
69528;BME280;57136;51.986;4.468;2023-02-03T11:10:37;102873.31;;;11.46;99.31
69528;BME280;57136;51.986;4.468;2023-02-03T11:13:14;102852.94;;;11.09;100.00
69528;BME280;57136;51.986;4.468;2023-02-03T11:15:50;102850.34;;;11.09;100.00
69528;BME280;57136;51.986;4.468;2023-02-03T11:18:34;102869.88;;;11.47;100.00
69528;BME280;57136;51.986;4.468;2023-02-03T11:21:09;102843.78;;;11.21;100.00
69528;BME280;57136;51.986;4.468;2023-02-03T11:23:36;102865.53;;;11.21;100.00
69528;BME280;57136;51.986;4.468;2023-02-03T11:26:12;102868.94;;;11.19;100.00
69528;BME280;57136;51.986;4.468;2023-02-03T11:28:44;102860.50;;;11.02;100.00
69528;BME280;57136;51.986;4.468;2023-02-03T11:31:31;102859.81;;;11.32;100.00
69528;BME280;57136;51.986;4.468;2023-02-03T11:34:14;102855.25;;;11.00;100.00
69528;BME280;57136;51.986;4.468;2023-02-03T11:36:40;102866.53;;;10.99;100.00
69528;BME280;57136;51.986;4.468;2023-02-03T11:41:41;102865.25;;;11.38;100.00
69528;BME280;57136;51.986;4.468;2023-02-03T11:44:27;102856.25;;;11.30;100.00
69528;BME280;57136;51.986;4.468;2023-02-03T11:47:01;102854.94;;;11.17;100.00
69528;BME280;57136;51.986;4.468;2023-02-03T11:49:45;102849.16;;;11.26;100.00
69528;BME280;57136;51.986;4.468;2023-02-03T11:55:33;102850.34;;;11.09;100.00
69528;BME280;57136;51.986;4.468;2023-02-03T12:05:38;102856.09;;;10.99;100.00
69528;BME280;57136;51.986;4.468;2023-02-03T12:19:19;102847.72;;;11.09;100.00
69528;BME280;57136;51.986;4.468;2023-02-03T12:29:54;102865.13;;;11.35;100.00
69528;BME280;57136;51.986;4.468;2023-02-03T12:33:12;102876.56;;;11.38;99.85
69528;BME280;57136;51.986;4.468;2023-02-03T12:35:27;102873.91;;;11.37;100.00
69528;BME280;57136;51.986;4.468;2023-02-03T12:38:17;102879.41;;;11.20;100.00
69528;BME280;57136;51.986;4.468;2023-02-03T12:40:54;102872.31;;;11.16;100.00
69528;BME280;57136;51.986;4.468;2023-02-03T12:43:35;102861.72;;;11.37;100.00
69528;BME280;57136;51.986;4.468;2023-02-03T12:46:09;102866.25;;;11.17;100.00
69528;BME280;57136;51.986;4.468;2023-02-03T12:48:55;102863.13;;;11.28;100.00
69528;BME280;57136;51.986;4.468;2023-02-03T12:51:31;102855.06;;;11.20;100.00
69528;BME280;57136;51.986;4.468;2023-02-03T12:54:04;102863.50;;;10.88;100.00
69528;BME280;57136;51.986;4.468;2023-02-03T12:56:38;102859.84;;;11.07;100.00
69528;BME280;57136;51.986;4.468;2023-02-03T12:59:12;102869.91;;;11.22;100.00
69528;BME280;57136;51.986;4.468;2023-02-03T13:01:51;102874.25;;;11.48;100.00
69528;BME280;57136;51.986;4.468;2023-02-03T13:04:40;102872.41;;;11.45;100.00
69528;BME280;57136;51.986;4.468;2023-02-03T13:07:21;102876.22;;;11.29;100.00
69528;BME280;57136;51.986;4.468;2023-02-03T13:10:02;102874.19;;;11.20;100.00
69528;BME280;57136;51.986;4.468;2023-02-03T13:12:32;102865.06;;;11.07;100.00
69528;BME280;57136;51.986;4.468;2023-02-03T13:17:41;102875.22;;;11.24;100.00
69528;BME280;57136;51.986;4.468;2023-02-03T13:20:20;102884.03;;;11.03;100.00
69528;BME280;57136;51.986;4.468;2023-02-03T13:22:46;102871.34;;;10.88;100.00
69528;BME280;57136;51.986;4.468;2023-02-03T13:30:42;102904.06;;;11.29;100.00
69528;BME280;57136;51.986;4.468;2023-02-03T13:39:24;102895.31;;;11.02;100.00
69528;BME280;57136;51.986;4.468;2023-02-03T13:41:55;102917.69;;;10.71;100.00
69528;BME280;57136;51.986;4.468;2023-02-03T13:44:32;102899.81;;;10.82;100.00
69528;BME280;57136;51.986;4.468;2023-02-03T13:46:58;102906.34;;;10.71;100.00
69528;BME280;57136;51.986;4.468;2023-02-03T13:49:30;102907.44;;;11.00;100.00
69528;BME280;57136;51.986;4.468;2023-02-03T13:51:57;102890.25;;;10.83;100.00
69528;BME280;57136;51.986;4.468;2023-02-03T13:56:59;102913.97;;;10.89;100.00
69528;BME280;57136;51.986;4.468;2023-02-03T13:59:40;102914.00;;;10.90;100.00
69528;BME280;57136;51.986;4.468;2023-02-03T14:07:30;102911.22;;;10.84;100.00
69528;BME280;57136;51.986;4.468;2023-02-03T14:10:14;102920.69;;;11.06;100.00
69528;BME280;57136;51.986;4.468;2023-02-03T14:17:57;102935.88;;;11.43;100.00
69528;BME280;57136;51.986;4.468;2023-02-03T14:22:50;102931.63;;;10.96;100.00
69528;BME280;57136;51.986;4.468;2023-02-03T14:25:18;102936.09;;;11.49;100.00
69528;BME280;57136;51.986;4.468;2023-02-03T14:27:45;102932.06;;;11.33;100.00
69528;BME280;57136;51.986;4.468;2023-02-03T14:30:13;102907.47;;;11.02;100.00
69528;BME280;57136;51.986;4.468;2023-02-03T14:32:55;102936.06;;;10.99;100.00
69528;BME280;57136;51.986;4.468;2023-02-03T14:35:35;102941.72;;;10.87;100.00
69528;BME280;57136;51.986;4.468;2023-02-03T14:38:06;102948.09;;;11.19;100.00
69528;BME280;57136;51.986;4.468;2023-02-03T14:46:19;102945.81;;;11.04;100.00
69528;BME280;57136;51.986;4.468;2023-02-03T14:52:00;102955.13;;;11.46;100.00